createdAt,value
2018-09-26T00:00:39.455Z,4.10
2018-09-26T00:03:14.719Z,4.20
2018-09-26T00:05:42.356Z,4.20
2018-09-26T00:08:10.622Z,4.30
2018-09-26T00:10:38.523Z,4.30
2018-09-26T00:13:07.223Z,4.30
2018-09-26T00:15:35.583Z,4.40
2018-09-26T00:18:03.384Z,4.50
2018-09-26T00:20:30.964Z,4.50
2018-09-26T00:22:58.468Z,4.50
2018-09-26T00:25:26.071Z,4.50
2018-09-26T00:27:53.936Z,4.50
2018-09-26T00:30:21.455Z,4.50
2018-09-26T00:32:48.974Z,4.50
2018-09-26T00:35:17.046Z,4.50
2018-09-26T00:37:44.708Z,4.50
2018-09-26T00:40:12.676Z,4.60
2018-09-26T00:42:40.831Z,4.60
2018-09-26T00:45:09.101Z,4.60
2018-09-26T00:47:37.020Z,4.60
2018-09-26T00:50:04.549Z,4.60
2018-09-26T00:52:32.067Z,4.70
2018-09-26T00:54:59.589Z,4.70
2018-09-26T00:57:27.447Z,4.80
2018-09-26T00:59:54.963Z,4.80
2018-09-26T01:02:23.156Z,4.90
2018-09-26T01:04:51.084Z,5.00
2018-09-26T01:07:18.948Z,5.00
2018-09-26T01:09:47.052Z,5.10
2018-09-26T01:12:15.164Z,5.10
2018-09-26T01:14:43.479Z,5.20
2018-09-26T01:17:11.036Z,5.20
2018-09-26T01:19:38.625Z,5.20
2018-09-26T01:22:06.190Z,5.20
2018-09-26T01:24:33.712Z,5.20
2018-09-26T01:27:01.976Z,5.20
2018-09-26T01:29:29.529Z,5.20
2018-09-26T01:31:57.028Z,5.20
2018-09-26T01:34:24.999Z,5.20
2018-09-26T01:36:52.548Z,5.30
2018-09-26T01:39:20.748Z,5.20
2018-09-26T01:41:48.654Z,5.20
2018-09-26T01:44:16.191Z,5.20
2018-09-26T01:46:43.699Z,5.30
2018-09-26T01:49:11.552Z,5.30
2018-09-26T01:51:39.088Z,5.30
2018-09-26T01:54:07.004Z,5.40
2018-09-26T01:56:34.647Z,5.40
2018-09-26T01:59:02.753Z,5.40
2018-09-26T02:01:30.252Z,5.50
2018-09-26T02:03:58.487Z,5.60
2018-09-26T02:06:26.028Z,5.70
2018-09-26T02:08:54.244Z,5.80
2018-09-26T02:11:22.207Z,5.80
2018-09-26T02:13:50.150Z,5.70
2018-09-26T02:16:17.780Z,5.70
2018-09-26T02:18:45.732Z,5.70
2018-09-26T02:21:13.332Z,5.70
2018-09-26T02:23:40.957Z,5.60
2018-09-26T02:26:08.923Z,5.70
2018-09-26T02:28:36.892Z,5.60
2018-09-26T02:31:05.044Z,5.60
2018-09-26T02:33:32.984Z,5.60
2018-09-26T02:36:00.500Z,5.70
2018-09-26T02:38:28.679Z,5.70
2018-09-26T02:40:56.217Z,5.70
2018-09-26T02:43:24.695Z,5.70
2018-09-26T02:45:52.207Z,5.80
2018-09-26T02:48:26.511Z,5.80
2018-09-26T02:50:54.017Z,5.80
2018-09-26T02:53:21.529Z,5.90
2018-09-26T02:55:49.687Z,5.90
2018-09-26T02:58:17.567Z,5.90
2018-09-26T03:00:45.077Z,5.90
2018-09-26T03:03:13.503Z,5.90
2018-09-26T03:05:41.199Z,5.90
2018-09-26T03:08:09.703Z,5.90
2018-09-26T03:10:37.563Z,5.90
2018-09-26T03:13:05.378Z,5.80
2018-09-26T03:15:33.024Z,5.80
2018-09-26T03:18:00.564Z,5.90
2018-09-26T03:20:28.178Z,5.90
2018-09-26T03:22:55.734Z,5.80
2018-09-26T03:25:23.336Z,5.90
2018-09-26T03:27:51.744Z,5.80
2018-09-26T03:30:19.241Z,5.70
2018-09-26T03:32:47.364Z,5.70
2018-09-26T03:35:16.087Z,5.80
2018-09-26T03:37:43.610Z,5.70
2018-09-26T03:40:11.205Z,5.70
2018-09-26T03:42:39.055Z,5.70
2018-09-26T03:46:36.273Z,5.70
2018-09-26T03:49:04.355Z,5.60
2018-09-26T03:51:31.856Z,5.60
2018-09-26T03:53:59.761Z,5.60
2018-09-26T03:56:27.633Z,5.50
2018-09-26T03:58:55.273Z,5.40
2018-09-26T04:01:22.790Z,5.40
2018-09-26T04:05:19.887Z,5.30
2018-09-26T04:07:48.084Z,5.30
2018-09-26T04:10:16.108Z,5.20
2018-09-26T04:12:44.640Z,5.10
2018-09-26T04:15:13.231Z,5.10
2018-09-26T04:17:42.417Z,5.00
2018-09-26T04:20:09.973Z,5.00
2018-09-26T04:22:37.496Z,5.00
2018-09-26T04:25:05.172Z,5.00
2018-09-26T04:27:33.480Z,4.90
2018-09-26T04:30:01.564Z,4.90
2018-09-26T04:32:29.765Z,4.90
2018-09-26T04:34:57.402Z,4.90
2018-09-26T04:37:25.048Z,4.90
2018-09-26T04:39:53.079Z,4.80
2018-09-26T04:42:20.905Z,4.90
2018-09-26T04:44:49.181Z,4.90
2018-09-26T04:47:17.531Z,5.00
2018-09-26T04:49:45.069Z,5.00
2018-09-26T04:52:13.227Z,5.00
2018-09-26T04:54:40.923Z,5.00
2018-09-26T04:57:08.443Z,5.00
2018-09-26T04:59:36.028Z,5.00
2018-09-26T05:02:03.584Z,5.00
2018-09-26T05:04:31.691Z,5.00
2018-09-26T05:06:59.723Z,5.00
2018-09-26T05:09:27.524Z,5.00
2018-09-26T05:11:55.367Z,5.00
2018-09-26T05:14:22.879Z,5.00
2018-09-26T05:16:50.399Z,5.20
2018-09-26T05:19:17.953Z,5.00
2018-09-26T05:21:45.463Z,5.10
2018-09-26T05:24:13.053Z,5.10
2018-09-26T05:26:40.756Z,5.20
2018-09-26T05:29:09.039Z,5.20
2018-09-26T05:31:37.037Z,5.20
2018-09-26T05:34:04.801Z,5.30
2018-09-26T05:36:32.508Z,5.30
2018-09-26T05:38:59.987Z,5.40
2018-09-26T05:41:27.519Z,5.50
2018-09-26T05:43:55.476Z,5.50
2018-09-26T05:46:22.995Z,5.60
2018-09-26T05:48:51.112Z,5.80
2018-09-26T05:51:19.236Z,5.90
2018-09-26T05:53:47.047Z,6.10
2018-09-26T05:56:14.647Z,6.10
2018-09-26T05:58:42.159Z,6.40
2018-09-26T06:01:10.071Z,6.40
2018-09-26T06:03:37.911Z,6.60
2018-09-26T06:06:05.439Z,6.60
2018-09-26T06:08:33.263Z,6.60
2018-09-26T06:11:01.193Z,6.70
2018-09-26T06:13:28.744Z,6.80
2018-09-26T06:15:56.279Z,6.80
2018-09-26T06:18:23.870Z,6.80
2018-09-26T06:20:51.380Z,6.80
2018-09-26T06:23:18.968Z,7.10
2018-09-26T06:25:46.543Z,7.10
2018-09-26T06:28:14.343Z,7.20
2018-09-26T06:30:41.888Z,7.20
2018-09-26T06:33:09.413Z,7.30
2018-09-26T06:35:36.959Z,7.40
2018-09-26T06:38:04.492Z,7.50
2018-09-26T06:40:33.025Z,7.60
2018-09-26T06:43:00.524Z,7.70
2018-09-26T06:45:29.255Z,7.90
2018-09-26T06:47:57.080Z,8.00
2018-09-26T06:50:24.623Z,8.10
2018-09-26T06:52:52.124Z,8.10
2018-09-26T06:55:19.723Z,8.30
2018-09-26T06:57:47.694Z,8.40
2018-09-26T07:00:15.537Z,8.40
2018-09-26T07:02:43.059Z,8.40
2018-09-26T07:05:10.663Z,8.50
2018-09-26T07:07:38.671Z,8.60
2018-09-26T07:10:06.277Z,8.60
2018-09-26T07:12:34.999Z,8.60
2018-09-26T07:15:02.583Z,8.70
2018-09-26T07:17:30.105Z,8.80
2018-09-26T07:19:57.616Z,8.90
2018-09-26T07:22:25.128Z,9.00
2018-09-26T07:24:52.831Z,9.00
2018-09-26T07:27:21.103Z,9.10
2018-09-26T07:29:48.622Z,9.30
2018-09-26T07:32:16.185Z,9.30
2018-09-26T07:34:43.722Z,9.40
2018-09-26T07:37:11.238Z,9.50
2018-09-26T07:39:38.841Z,9.60
2018-09-26T07:42:07.540Z,9.70
2018-09-26T07:44:35.444Z,9.80
2018-09-26T07:47:03.344Z,9.80
2018-09-26T07:49:31.195Z,9.80
2018-09-26T07:51:58.733Z,9.90
2018-09-26T07:54:26.266Z,10.00
2018-09-26T07:56:54.191Z,10.00
2018-09-26T07:59:22.008Z,10.00
2018-09-26T08:01:49.593Z,10.10
2018-09-26T08:04:17.125Z,10.20
2018-09-26T08:06:45.438Z,10.30
2018-09-26T08:09:13.356Z,10.30
2018-09-26T08:11:41.249Z,10.40
2018-09-26T08:14:08.708Z,10.60
2018-09-26T08:16:36.877Z,10.60
2018-09-26T08:19:04.545Z,10.60
2018-09-26T08:21:32.127Z,10.70
2018-09-26T08:24:00.372Z,10.80
2018-09-26T08:26:28.841Z,10.90
2018-09-26T08:28:57.584Z,10.90
2018-09-26T08:31:25.117Z,11.00
2018-09-26T08:33:52.628Z,11.10
2018-09-26T08:36:20.712Z,11.20
2018-09-26T08:38:48.383Z,11.30
2018-09-26T08:41:16.148Z,11.40
2018-09-26T08:43:43.969Z,11.60
2018-09-26T08:46:11.935Z,11.60
2018-09-26T08:48:40.132Z,11.70
2018-09-26T08:51:07.691Z,11.90
2018-09-26T08:53:35.743Z,11.90
2018-09-26T08:56:03.661Z,12.10
2018-09-26T08:58:31.692Z,12.20
2018-09-26T09:00:59.259Z,12.20
2018-09-26T09:03:26.761Z,12.30
2018-09-26T09:05:54.315Z,12.40
2018-09-26T09:08:22.287Z,12.50
2018-09-26T09:10:49.775Z,12.50
2018-09-26T09:13:17.828Z,12.60
2018-09-26T09:15:45.428Z,12.70
2018-09-26T09:18:13.463Z,12.90
2018-09-26T09:20:41.359Z,13.00
2018-09-26T09:23:08.852Z,13.00
2018-09-26T09:25:36.363Z,13.10
2018-09-26T09:28:04.492Z,13.30
2018-09-26T09:30:32.023Z,13.40
2018-09-26T09:33:00.660Z,13.50
2018-09-26T09:35:28.193Z,13.60
2018-09-26T09:37:55.691Z,13.70
2018-09-26T09:40:23.260Z,13.80
2018-09-26T09:42:51.095Z,13.90
2018-09-26T09:45:19.843Z,14.00
2018-09-26T09:47:48.084Z,14.00
2018-09-26T09:50:15.644Z,14.10
2018-09-26T09:52:43.860Z,14.20
2018-09-26T09:55:12.079Z,14.30
2018-09-26T09:57:39.684Z,14.40
2018-09-26T10:00:07.252Z,14.50
2018-09-26T10:02:34.900Z,14.60
2018-09-26T10:05:03.111Z,14.70
2018-09-26T10:07:31.345Z,14.80
2018-09-26T10:09:59.196Z,14.90
2018-09-26T10:12:27.184Z,15.00
2018-09-26T10:14:54.725Z,15.00
2018-09-26T10:17:22.275Z,15.10
2018-09-26T10:19:50.076Z,15.20
2018-09-26T10:22:17.569Z,15.30
2018-09-26T10:24:45.083Z,15.40
2018-09-26T10:27:13.292Z,15.50
2018-09-26T10:29:40.860Z,15.60
2018-09-26T10:32:08.834Z,15.70
2018-09-26T10:34:36.468Z,15.80
2018-09-26T10:37:03.983Z,15.80
2018-09-26T10:39:32.735Z,16.00
2018-09-26T10:42:00.844Z,16.10
2018-09-26T10:44:29.604Z,16.10
2018-09-26T10:46:57.100Z,16.20
2018-09-26T10:49:25.276Z,16.30
2018-09-26T10:51:53.253Z,16.40
2018-09-26T10:54:20.804Z,16.50
2018-09-26T10:56:48.352Z,16.60
2018-09-26T10:59:15.844Z,16.60
2018-09-26T11:01:44.034Z,16.60
2018-09-26T11:04:11.650Z,16.70
2018-09-26T11:06:39.291Z,16.80
2018-09-26T11:09:08.524Z,16.90
2018-09-26T11:11:36.396Z,17.00
2018-09-26T11:14:03.929Z,17.10
2018-09-26T11:16:32.925Z,17.10
2018-09-26T11:19:00.503Z,17.20
2018-09-26T11:21:28.024Z,17.20
2018-09-26T11:23:55.541Z,17.20
2018-09-26T11:26:23.126Z,17.30
2018-09-26T11:28:51.216Z,17.40
2018-09-26T11:31:18.712Z,17.50
2018-09-26T11:33:46.548Z,17.60
2018-09-26T11:36:14.071Z,17.70
2018-09-26T11:38:41.566Z,17.80
2018-09-26T11:41:10.128Z,17.80
2018-09-26T11:43:39.260Z,17.90
2018-09-26T11:46:08.023Z,18.00
2018-09-26T11:48:36.004Z,18.00
2018-09-26T11:51:03.548Z,18.00
2018-09-26T11:53:31.044Z,18.00
2018-09-26T11:55:58.615Z,18.00
2018-09-26T11:58:26.199Z,18.00
2018-09-26T12:00:53.733Z,18.00
2018-09-26T12:03:21.268Z,18.10
2018-09-26T12:05:48.798Z,18.20
2018-09-26T12:08:17.174Z,18.10
2018-09-26T12:10:44.671Z,18.20
2018-09-26T12:13:12.726Z,18.30
2018-09-26T12:15:40.224Z,18.30
2018-09-26T12:18:07.756Z,18.30
2018-09-26T12:20:37.132Z,18.40
2018-09-26T12:23:04.951Z,18.50
2018-09-26T12:25:34.180Z,18.50
2018-09-26T12:28:02.108Z,18.50
2018-09-26T12:30:29.643Z,18.50
2018-09-26T12:32:57.163Z,18.50
2018-09-26T12:35:24.708Z,18.60
2018-09-26T12:37:52.888Z,18.60
2018-09-26T12:40:21.740Z,18.60
2018-09-26T12:42:49.729Z,18.70
2018-09-26T12:45:17.617Z,18.60
2018-09-26T12:47:45.783Z,18.60
2018-09-26T12:50:13.363Z,18.70
2018-09-26T12:52:40.891Z,18.80
2018-09-26T12:55:08.447Z,18.60
2018-09-26T12:57:36.732Z,18.60
2018-09-26T13:00:05.409Z,18.60
2018-09-26T13:02:32.968Z,18.60
2018-09-26T13:05:00.444Z,18.60
2018-09-26T13:07:28.452Z,18.60
2018-09-26T13:09:56.595Z,18.50
2018-09-26T13:12:24.547Z,18.50
2018-09-26T13:14:52.021Z,18.50
2018-09-26T13:17:19.548Z,18.50
2018-09-26T13:19:47.182Z,18.60
2018-09-26T13:22:14.751Z,18.60
2018-09-26T13:24:42.319Z,18.60
2018-09-26T13:27:11.107Z,18.60
2018-09-26T13:29:38.626Z,18.40
2018-09-26T13:32:06.208Z,18.50
2018-09-26T13:34:33.737Z,18.50
2018-09-26T13:37:01.304Z,18.40
2018-09-26T13:39:28.957Z,18.40
2018-09-26T13:41:56.806Z,18.50
2018-09-26T13:44:24.895Z,18.50
2018-09-26T13:46:52.421Z,18.50
2018-09-26T13:49:21.151Z,18.40
2018-09-26T13:51:48.665Z,18.40
2018-09-26T13:54:16.290Z,18.40
2018-09-26T13:56:44.375Z,18.40
2018-09-26T13:59:11.896Z,18.40
2018-09-26T14:01:39.797Z,18.40
2018-09-26T14:04:07.353Z,18.40
2018-09-26T14:06:34.876Z,18.50
2018-09-26T14:09:04.143Z,18.60
2018-09-26T14:11:32.290Z,18.50
2018-09-26T14:13:59.795Z,18.60
2018-09-26T14:16:27.300Z,18.50
2018-09-26T14:18:54.847Z,18.50
2018-09-26T14:21:22.815Z,18.60
2018-09-26T14:23:50.373Z,18.70
2018-09-26T14:26:18.708Z,19.30
2018-09-26T14:28:46.615Z,19.90
2018-09-26T14:31:14.488Z,20.20
2018-09-26T14:33:43.148Z,20.60
2018-09-26T14:36:11.016Z,20.80
2018-09-26T14:38:39.890Z,21.20
2018-09-26T14:41:08.034Z,21.40
2018-09-26T14:43:35.551Z,21.30
2018-09-26T14:46:03.236Z,21.70
2018-09-26T14:48:31.351Z,21.70
2018-09-26T14:50:58.900Z,21.90
2018-09-26T14:53:26.564Z,21.90
2018-09-26T14:55:54.044Z,22.20
2018-09-26T14:58:22.082Z,22.50
2018-09-26T15:00:50.143Z,22.70
2018-09-26T15:03:17.664Z,22.50
2018-09-26T15:05:45.695Z,22.20
2018-09-26T15:08:13.818Z,22.40
2018-09-26T15:10:41.995Z,22.20
2018-09-26T15:13:10.071Z,22.30
2018-09-26T15:15:38.360Z,22.10
2018-09-26T15:18:06.045Z,21.20
2018-09-26T15:20:33.629Z,20.30
2018-09-26T15:23:01.902Z,19.30
2018-09-26T15:25:29.556Z,18.70
2018-09-26T15:27:58.333Z,18.10
2018-09-26T15:30:25.950Z,17.60
2018-09-26T15:32:53.416Z,17.20
2018-09-26T15:35:21.108Z,17.00
2018-09-26T15:37:49.852Z,16.70
2018-09-26T15:40:17.917Z,16.30
2018-09-26T15:42:46.192Z,16.00
2018-09-26T15:45:14.361Z,15.90
2018-09-26T15:47:42.525Z,15.70
2018-09-26T15:50:10.341Z,15.60
2018-09-26T15:52:38.208Z,15.40
2018-09-26T15:55:06.269Z,15.30
2018-09-26T15:57:35.862Z,15.40
2018-09-26T16:00:03.547Z,15.30
2018-09-26T16:02:31.446Z,15.30
2018-09-26T16:04:59.571Z,15.30
2018-09-26T16:07:27.491Z,15.30
2018-09-26T16:09:55.565Z,15.20
2018-09-26T16:12:24.349Z,15.10
2018-09-26T16:14:51.873Z,15.00
2018-09-26T16:17:19.392Z,14.90
2018-09-26T16:19:46.937Z,14.90
2018-09-26T16:22:14.659Z,14.60
2018-09-26T16:24:42.765Z,14.60
2018-09-26T16:27:10.878Z,14.60
2018-09-26T16:29:38.447Z,14.50
2018-09-26T16:32:06.068Z,14.40
2018-09-26T16:34:33.948Z,14.30
2018-09-26T16:37:01.997Z,14.30
2018-09-26T16:39:29.680Z,14.20
2018-09-26T16:41:57.186Z,14.10
2018-09-26T16:44:24.740Z,14.00
2018-09-26T16:46:52.656Z,13.80
2018-09-26T16:49:20.674Z,13.70
2018-09-26T16:51:48.180Z,13.60
2018-09-26T16:54:16.935Z,13.40
2018-09-26T16:56:44.526Z,13.20
2018-09-26T16:59:12.480Z,13.10
2018-09-26T17:01:42.053Z,13.00
2018-09-26T17:04:09.589Z,12.80
2018-09-26T17:06:37.157Z,12.70
2018-09-26T17:09:06.920Z,12.60
2018-09-26T17:11:35.060Z,12.50
2018-09-26T17:14:02.599Z,12.50
2018-09-26T17:16:30.160Z,12.40
2018-09-26T17:18:57.687Z,12.30
2018-09-26T17:21:25.367Z,12.20
2018-09-26T17:23:53.040Z,12.10
2018-09-26T17:26:20.728Z,11.90
2018-09-26T17:28:49.288Z,11.90
2018-09-26T17:31:16.768Z,11.80
2018-09-26T17:33:46.036Z,11.70
2018-09-26T17:36:15.383Z,11.60
2018-09-26T17:38:42.854Z,11.50
2018-09-26T17:41:10.407Z,11.50
2018-09-26T17:43:38.526Z,11.40
2018-09-26T17:46:07.502Z,11.30
2018-09-26T17:48:36.317Z,11.30
2018-09-26T17:51:03.904Z,11.30
2018-09-26T17:53:32.080Z,11.20
2018-09-26T17:55:59.663Z,11.00
2018-09-26T17:58:27.684Z,10.90
2018-09-26T18:00:55.670Z,10.90
2018-09-26T18:03:23.623Z,10.70
2018-09-26T18:05:51.557Z,10.80
2018-09-26T18:08:19.447Z,10.70
2018-09-26T18:10:47.084Z,10.70
2018-09-26T18:13:15.227Z,10.70
2018-09-26T18:15:43.116Z,10.60
2018-09-26T18:18:10.647Z,10.60
2018-09-26T18:20:38.169Z,10.50
2018-09-26T18:23:05.818Z,10.40
2018-09-26T18:25:33.319Z,10.30
2018-09-26T18:28:01.727Z,10.30
2018-09-26T18:30:29.708Z,10.30
2018-09-26T18:32:58.049Z,10.20
2018-09-26T18:35:25.702Z,10.20
2018-09-26T18:37:53.668Z,10.10
2018-09-26T18:40:21.238Z,10.10
2018-09-26T18:42:49.213Z,10.10
2018-09-26T18:45:16.919Z,10.00
2018-09-26T18:47:45.060Z,10.00
2018-09-26T18:50:13.100Z,10.00
2018-09-26T18:52:40.692Z,9.90
2018-09-26T18:55:09.662Z,9.80
2018-09-26T18:57:37.742Z,9.80
2018-09-26T19:00:05.557Z,9.80
2018-09-26T19:02:33.711Z,9.80
2018-09-26T19:05:01.638Z,9.80
2018-09-26T19:07:29.863Z,9.80
2018-09-26T19:09:57.831Z,9.70
2018-09-26T19:12:25.958Z,9.70
2018-09-26T19:14:54.069Z,9.70
2018-09-26T19:17:21.647Z,9.60
2018-09-26T19:19:49.419Z,9.60
2018-09-26T19:22:17.137Z,9.60
2018-09-26T19:24:44.785Z,9.50
2018-09-26T19:27:13.897Z,9.50
2018-09-26T19:29:42.045Z,9.40
2018-09-26T19:32:11.071Z,9.30
2018-09-26T19:34:38.959Z,9.30
2018-09-26T19:37:08.534Z,9.30
2018-09-26T19:39:36.613Z,9.30
2018-09-26T19:42:04.204Z,9.30
2018-09-26T19:44:31.967Z,9.30
2018-09-26T19:47:00.183Z,9.30
2018-09-26T19:49:28.332Z,9.30
2018-09-26T19:51:56.467Z,9.30
2018-09-26T19:54:24.348Z,9.30
2018-09-26T19:56:51.933Z,9.30
2018-09-26T19:59:19.478Z,9.30
2018-09-26T20:01:47.001Z,9.30
2018-09-26T20:04:15.624Z,9.20
2018-09-26T20:06:44.297Z,9.10
2018-09-26T20:09:13.007Z,9.10
2018-09-26T20:11:41.868Z,9.10
2018-09-26T20:14:10.421Z,9.10
2018-09-26T20:16:38.694Z,9.10
2018-09-26T20:19:06.547Z,9.00
2018-09-26T20:21:34.076Z,8.90
2018-09-26T20:24:01.732Z,8.90
2018-09-26T20:26:30.492Z,8.90
2018-09-26T20:28:58.864Z,8.90
2018-09-26T20:31:26.646Z,8.90
2018-09-26T20:33:54.351Z,8.80
2018-09-26T20:36:23.036Z,8.80
2018-09-26T20:38:52.409Z,8.80
2018-09-26T20:41:20.361Z,8.70
2018-09-26T20:43:48.196Z,8.70
2018-09-26T20:46:16.478Z,8.70
2018-09-26T20:48:44.671Z,8.60
2018-09-26T20:51:12.991Z,8.50
2018-09-26T20:53:41.063Z,8.60
2018-09-26T20:56:08.911Z,8.50
2018-09-26T20:58:36.507Z,8.50
2018-09-26T21:01:04.161Z,8.50
2018-09-26T21:03:32.438Z,8.40
2018-09-26T21:06:00.009Z,8.40
2018-09-26T21:08:28.728Z,8.30
2018-09-26T21:10:58.521Z,8.30
2018-09-26T21:13:26.446Z,8.20
2018-09-26T21:15:54.607Z,8.10
2018-09-26T21:18:22.128Z,8.00
2018-09-26T21:20:49.766Z,8.10
2018-09-26T21:23:17.712Z,8.10
2018-09-26T21:25:47.678Z,8.00
2018-09-26T21:28:15.832Z,7.90
2018-09-26T21:30:44.797Z,7.90
2018-09-26T21:33:13.728Z,7.80
2018-09-26T21:35:41.428Z,7.80
2018-09-26T21:38:10.188Z,7.90
2018-09-26T21:40:37.937Z,7.90
2018-09-26T21:43:05.892Z,7.90
2018-09-26T21:45:33.580Z,7.80
2018-09-26T21:48:03.623Z,7.70
2018-09-26T21:50:31.695Z,7.80
2018-09-26T21:52:59.688Z,7.80
2018-09-26T21:55:27.239Z,7.80
2018-09-26T21:57:54.771Z,7.80
2018-09-26T22:00:22.331Z,7.80
2018-09-26T22:02:50.629Z,7.80
2018-09-26T22:05:18.227Z,7.70
2018-09-26T22:07:46.126Z,7.80
2018-09-26T22:10:14.063Z,7.70
2018-09-26T22:12:42.118Z,7.70
2018-09-26T22:15:16.100Z,7.70
2018-09-26T22:17:43.662Z,7.70
2018-09-26T22:20:12.361Z,7.80
2018-09-26T22:22:40.575Z,7.70
2018-09-26T22:25:08.119Z,7.70
2018-09-26T22:27:36.228Z,7.70
2018-09-26T22:30:04.242Z,7.70
2018-09-26T22:32:32.230Z,7.50
2018-09-26T22:34:59.799Z,7.50
2018-09-26T22:37:27.736Z,7.50
2018-09-26T22:39:56.053Z,7.40
2018-09-26T22:42:23.578Z,7.40
2018-09-26T22:44:51.101Z,7.50
2018-09-26T22:47:18.973Z,7.50
2018-09-26T22:49:46.915Z,7.50
2018-09-26T22:52:14.451Z,7.50
2018-09-26T22:54:42.022Z,7.40
2018-09-26T22:57:10.261Z,7.40
2018-09-26T22:59:37.851Z,7.30
2018-09-26T23:02:05.685Z,7.30
2018-09-26T23:04:33.227Z,7.30
2018-09-26T23:07:01.501Z,7.30
2018-09-26T23:09:29.667Z,7.20
2018-09-26T23:11:57.661Z,7.20
2018-09-26T23:14:25.250Z,7.20
2018-09-26T23:16:52.819Z,7.20
2018-09-26T23:19:20.716Z,7.20
2018-09-26T23:21:48.836Z,7.20
2018-09-26T23:24:17.159Z,7.20
2018-09-26T23:26:45.277Z,7.20
2018-09-26T23:29:13.293Z,7.20
2018-09-26T23:31:41.469Z,7.20
2018-09-26T23:34:09.797Z,7.30
2018-09-26T23:36:37.909Z,7.20
2018-09-26T23:39:07.759Z,7.30
2018-09-26T23:41:35.280Z,7.30
2018-09-26T23:44:03.141Z,7.30
2018-09-26T23:46:31.435Z,7.30
2018-09-26T23:48:59.514Z,7.30
2018-09-26T23:51:27.035Z,7.40
2018-09-26T23:53:54.607Z,7.40
2018-09-26T23:56:22.161Z,7.40
2018-09-26T23:58:49.662Z,7.40
